Eendracht — PDVN — position and weather

sailwx.info

Track history (hours):
 
Tides and Currents Weather Stations Pressure Air Temp Water Temp Dewpoint Dewpoint Depression Visibility Wind Speed Wind Dir Waves Ship Positions

Eendracht (Netherlands)

Last reported at 2015-Mar-30 00:31 UTC. Time now 2015-Mar-30 01:03 UTC.
Position N 51°54' E 004°27'.

Length 59 m; beam 12 m; draft 5 m.

MMSI: 244543000.

Date/timePositionNaut miles runAvg speedWind from/ knotsBaromVisibWave heightAir tempDewpointWater temp
2015-Mar-30 00:31N 51°54' E 004°27'0 0.0
2015-Mar-29 23:31N 51°54' E 004°27'0 0.0
2015-Mar-29 22:31N 51°54' E 004°27'0 0.0
2015-Mar-29 21:31N 51°54' E 004°27'0 0.0
2015-Mar-29 20:31N 51°54' E 004°27'0 0.0
2015-Mar-29 19:31N 51°54' E 004°27'0 0.0
2015-Mar-29 18:31N 51°54' E 004°27'0 0.0
2015-Mar-29 17:31N 51°54' E 004°27'0 0.0
2015-Mar-29 16:31N 51°54' E 004°27'0 0.0
2015-Mar-29 15:31N 51°54' E 004°27'0 0.0
2015-Mar-29 14:31N 51°54' E 004°27'0 0.0
2015-Mar-29 13:31N 51°54' E 004°27'0 0.0
2015-Mar-29 12:31N 51°54' E 004°27'0 0.0
2015-Mar-29 11:31N 51°54' E 004°27'0 0.0
2015-Mar-29 10:31N 51°54' E 004°27'0 0.0
2015-Mar-29 09:31N 51°54' E 004°27'0 0.0
2015-Mar-29 08:31N 51°54' E 004°27'0 0.0
2015-Mar-29 07:31N 51°54' E 004°27'0 0.0
2015-Mar-29 06:31N 51°54' E 004°27'0 0.0
2015-Mar-29 05:31N 51°54' E 004°27'0 0.0
2015-Mar-29 04:31N 51°54' E 004°27'0 0.0
2015-Mar-29 03:31N 51°54' E 004°27'0 0.0
2015-Mar-29 02:31N 51°54' E 004°27'0 0.0
2015-Mar-29 01:31N 51°54' E 004°27'0 0.0
2015-Mar-29 00:31N 51°54' E 004°27'0 0.0
2015-Mar-28 23:31N 51°54' E 004°27'0 0.0
2015-Mar-28 22:31N 51°54' E 004°27'0 0.0
2015-Mar-28 21:31N 51°54' E 004°27'0 0.0
2015-Mar-28 20:31N 51°54' E 004°27'0 0.0
2015-Mar-28 19:31N 51°54' E 004°27'0 0.0
2015-Mar-28 18:31N 51°54' E 004°27'0 0.0
2015-Mar-28 17:31N 51°54' E 004°27'0 0.0
2015-Mar-28 16:31N 51°54' E 004°27'0 0.0
2015-Mar-28 15:31N 51°54' E 004°27'0 0.0
2015-Mar-28 14:34N 51°54' E 004°27'0 0.0
2015-Mar-28 13:33N 51°54' E 004°27'0 0.0
2015-Mar-28 12:30N 51°54' E 004°27'0 0.0
2015-Mar-28 11:33N 51°54' E 004°27'0 0.0
2015-Mar-28 10:34N 51°54' E 004°27'0 0.0
2015-Mar-28 09:33N 51°54' E 004°27'0 0.0
2015-Mar-28 08:27N 51°54' E 004°27'0 0.0
2015-Mar-28 07:33N 51°54' E 004°27'0 0.0
2015-Mar-28 06:33N 51°54' E 004°27'0 0.0
2015-Mar-28 05:31N 51°54' E 004°27'0 0.0
2015-Mar-28 04:31N 51°54' E 004°27'0 0.0
2015-Mar-28 03:31N 51°54' E 004°27'0 0.0
2015-Mar-28 02:28N 51°54' E 004°27'0 0.0
2015-Mar-28 01:31N 51°54' E 004°27'0 0.0
2015-Mar-28 00:31N 51°54' E 004°27'0 0.0
2015-Mar-27 23:31N 51°54' E 004°27'0 0.0
2015-Mar-27 22:31N 51°54' E 004°27'0 0.0
2015-Mar-27 21:31N 51°54' E 004°27'0 0.0
2015-Mar-27 20:28N 51°54' E 004°27'0 0.0
2015-Mar-27 19:31N 51°54' E 004°27'0 0.0
2015-Mar-27 18:31N 51°54' E 004°27'0 0.0
2015-Mar-27 17:28N 51°54' E 004°27'0 0.0
2015-Mar-27 16:31N 51°54' E 004°27'0 0.0
2015-Mar-27 15:28N 51°54' E 004°27'0 0.0
2015-Mar-27 14:28N 51°54' E 004°27'0 0.0
2015-Mar-27 13:31N 51°54' E 004°27'0 0.0
2015-Mar-27 12:31N 51°54' E 004°27'0 0.0
2015-Mar-27 11:31N 51°54' E 004°27'0 0.0
2015-Mar-27 10:31N 51°54' E 004°27'0 0.0
2015-Mar-27 09:34N 51°54' E 004°27'4 4.3
2015-Mar-27 08:33N 51°54' E 004°20'8 8.3
2015-Mar-27 07:33N 51°58' E 004°09'5 5.3
2015-Mar-27 06:34N 52°03' E 004°05'5 5.0
2015-Mar-27 05:34N 52°06' E 004°12'2 2.4
2015-Mar-27 04:32N 52°06' E 004°16'0 0.0
2015-Mar-27 03:29N 52°06' E 004°16'0 0.0
2015-Mar-27 02:32N 52°06' E 004°16'0 0.0
2015-Mar-27 01:32N 52°06' E 004°16'0 0.0
2015-Mar-27 00:32N 52°06' E 004°16'0 0.0
2015-Mar-26 23:32N 52°06' E 004°16'0 0.0
2015-Mar-26 22:32N 52°06' E 004°16'0 0.0
2015-Mar-26 21:32N 52°06' E 004°16'0 0.0
2015-Mar-26 20:29N 52°06' E 004°16'0 0.0
2015-Mar-26 19:32N 52°06' E 004°16'0 0.0
2015-Mar-26 18:32N 52°06' E 004°16'0 0.0
2015-Mar-26 17:32N 52°06' E 004°16'0 0.0
2015-Mar-26 16:32N 52°06' E 004°16'0 0.0
2015-Mar-26 15:29N 52°06' E 004°16'0 0.0
2015-Mar-26 14:31N 52°06' E 004°16'0 0.0
2015-Mar-26 13:28N 52°06' E 004°16'0 0.0
2015-Mar-26 12:31N 52°06' E 004°16'0 0.0
2015-Mar-26 11:31N 52°06' E 004°16'0 0.0
2015-Mar-26 10:31N 52°06' E 004°16'3 3.1
2015-Mar-26 09:33N 52°09' E 004°15'5 4.8
2015-Mar-26 08:33N 52°14' E 004°16'3 3.1
2015-Mar-26 07:33N 52°17' E 004°16'4 4.2
2015-Mar-26 06:33N 52°18' E 004°09'7 7.0
2015-Mar-26 05:33N 52°20' E 003°58'2 2.4
2015-Mar-26 04:33N 52°20' E 003°54'4 3.8
2015-Mar-26 03:33N 52°17' E 003°59'2 2.1
2015-Mar-26 02:33N 52°15' E 003°59'2 1.8
2015-Mar-26 01:33N 52°13' E 003°60'1 0.8
2015-Mar-26 00:33N 52°12' E 004°00'0 0.3
2015-Mar-25 23:33N 52°13' E 004°01'0 0.4
2015-Mar-25 22:33N 52°12' E 004°00'3 3.5
2015-Mar-25 21:33N 52°15' E 004°05'5 4.5
2015-Mar-25 20:33N 52°17' E 004°10'6 6.1
2015-Mar-25 19:33N 52°20' E 004°19'6 5.8
2015-Mar-25 18:33N 52°23' E 004°27'5 5.4
2015-Mar-25 17:33N 52°19' E 004°22'8 7.7
2015-Mar-25 16:34N 52°13' E 004°14'7 6.6
2015-Mar-25 15:33N 52°09' E 004°06'4 3.6
2015-Mar-25 14:33N 52°06' E 004°02'5 5.4
2015-Mar-25 13:33N 52°08' E 004°10'1 1.1
2015-Mar-25 12:33N 52°08' E 004°11'1 1.5
2015-Mar-25 11:33N 52°08' E 004°14'1 0.6
2015-Mar-25 10:33N 52°07' E 004°14'1 0.8
2015-Mar-25 09:33N 52°08' E 004°15'1 0.6
2015-Mar-25 08:33N 52°07' E 004°15'1 0.7
2015-Mar-25 07:33N 52°07' E 004°15'1 0.6
2015-Mar-25 06:33N 52°07' E 004°15'0 0.1
2015-Mar-25 05:33N 52°07' E 004°15'0 0.1
2015-Mar-25 04:33N 52°07' E 004°15'1 0.5
2015-Mar-25 03:33N 52°07' E 004°15'1 0.6
2015-Mar-25 02:33N 52°07' E 004°14'0 0.3
2015-Mar-25 01:33N 52°07' E 004°15'0 0.4
2015-Mar-25 00:33N 52°07' E 004°14'1 1.0
2015-Mar-24 23:33N 52°06' E 004°15'1 0.7
2015-Mar-24 22:33N 52°07' E 004°15'1 0.5
2015-Mar-24 21:33N 52°08' E 004°14'0 0.5
2015-Mar-24 20:33N 52°07' E 004°15'0 0.4
2015-Mar-24 19:33N 52°07' E 004°15'1 1.0
2015-Mar-24 18:33N 52°08' E 004°14'1 1.2
2015-Mar-24 17:33N 52°09' E 004°15'1 1.0
2015-Mar-24 16:33N 52°08' E 004°13'7 7.1
2015-Mar-24 15:33N 52°03' E 004°05'8 7.5
2015-Mar-24 14:33N 51°59' E 003°56'6 5.8
2015-Mar-24 13:33N 51°58' E 003°46'6 5.5
2015-Mar-24 12:33N 51°57' E 003°37'5 5.2
2015-Mar-24 11:33N 51°56' E 003°29'5 5.0
2015-Mar-24 10:33N 51°54' E 003°21'6 5.5
2015-Mar-24 09:31N 51°52' E 003°13'6 6.1
2015-Mar-24 08:32N 51°48' E 003°05'7 7.1
2015-Mar-24 07:33N 51°43' E 002°58'7 7.3
2015-Mar-24 06:33N 51°37' E 002°51'8 7.9
2015-Mar-24 05:31N 51°30' E 002°45'8 8.1
2015-Mar-24 04:33N 51°24' E 002°37'9 8.7
2015-Mar-24 03:32N 51°20' E 002°24'9 9.1
2015-Mar-24 02:33N 51°15' E 002°12'9 8.7
2015-Mar-24 01:33N 51°11' E 002°00'8 7.6
2015-Mar-24 00:33N 51°07' E 001°50'6 6.3
2015-Mar-23 23:33N 51°03' E 001°42'4 4.4
2015-Mar-23 22:33N 50°59' E 001°38'3 3.2
2015-Mar-23 21:33N 50°57' E 001°34'3 3.1
2015-Mar-23 20:33N 50°55' E 001°31'4 3.7
2015-Mar-23 19:34N 50°51' E 001°29'91 2.5
2015-Mar-22 07:15N 50°22' W 000°46'2 2.9
2015-Mar-22 06:33N 50°23' W 000°49'2 2.1
2015-Mar-22 05:27N 50°25' W 000°51'2 2.4
2015-Mar-22 04:33N 50°27' W 000°50'2 2.3
2015-Mar-22 03:33N 50°29' W 000°50'5 5.3
2015-Mar-22 02:33N 50°30' W 000°42'8 7.8
2015-Mar-22 01:30N 50°32' W 000°29'7 6.8
2015-Mar-22 00:32N 50°33' W 000°19'5 5.4
2015-Mar-21 23:32N 50°33' W 000°10'2 1.7
2015-Mar-21 22:07N 50°33' W 000°06'4 6.0
2015-Mar-21 21:30N 50°34' W 000°12'7 7.4
2015-Mar-21 20:33N 50°36' W 000°23'7 6.9
2015-Mar-21 19:33N 50°38' W 000°33'5 5.2
2015-Mar-21 18:33N 50°38' W 000°41'4 3.8
2015-Mar-21 17:33N 50°38' W 000°47'3 3.3
2015-Mar-21 16:33N 50°38' W 000°52'6 5.9
2015-Mar-21 15:33N 50°43' W 000°57'1 1.0
2015-Mar-21 14:33N 50°44' W 000°58'0 0.2
2015-Mar-21 13:33N 50°44' W 000°58'2 1.7
2015-Mar-21 12:33N 50°43' W 001°00'3 3.4
2015-Mar-21 11:33N 50°44' W 001°05'5 5.1
2015-Mar-21 10:33N 50°46' W 001°13'6 6.3
2015-Mar-21 09:33N 50°45' W 001°23'9 8.7
2015-Mar-21 08:33N 50°41' W 001°35'8 7.6
2015-Mar-21 07:33N 50°36' W 001°45'35 6.9
2015-Mar-21 02:33N 50°24' W 002°36'5 4.9
2015-Mar-21 01:33N 50°22' W 002°43'5 4.9
2015-Mar-21 00:33N 50°21' W 002°50'4 4.4
2015-Mar-20 23:33N 50°19' W 002°56'4 4.4
2015-Mar-20 22:33N 50°17' W 003°03'5 5.0
2015-Mar-20 21:33N 50°15' W 003°10'6 5.6
2015-Mar-20 20:33N 50°13' W 003°18'8 7.3
2015-Mar-20 19:30N 50°10' W 003°29'  
Track history (hours):
 
Tides and Currents Weather Stations Pressure Air Temp Water Temp Dewpoint Dewpoint Depression Visibility Wind Speed Wind Dir Waves Ship Positions

Eendracht (Netherlands)

Last reported at 2015-Mar-30 00:31 UTC. Time now 2015-Mar-30 01:03 UTC.
Position N 51°54' E 004°27'.

Length 59 m; beam 12 m; draft 5 m.

MMSI: 244543000.

Date/timePositionNaut miles runAvg speedWind from/ knotsBaromVisibWave heightAir tempDewpointWater temp
2015-Mar-30 00:31N 51°54' E 004°27'0 0.0
2015-Mar-29 23:31N 51°54' E 004°27'0 0.0
2015-Mar-29 22:31N 51°54' E 004°27'0 0.0
2015-Mar-29 21:31N 51°54' E 004°27'0 0.0
2015-Mar-29 20:31N 51°54' E 004°27'0 0.0
2015-Mar-29 19:31N 51°54' E 004°27'0 0.0
2015-Mar-29 18:31N 51°54' E 004°27'0 0.0
2015-Mar-29 17:31N 51°54' E 004°27'0 0.0
2015-Mar-29 16:31N 51°54' E 004°27'0 0.0
2015-Mar-29 15:31N 51°54' E 004°27'0 0.0
2015-Mar-29 14:31N 51°54' E 004°27'0 0.0
2015-Mar-29 13:31N 51°54' E 004°27'0 0.0
2015-Mar-29 12:31N 51°54' E 004°27'0 0.0
2015-Mar-29 11:31N 51°54' E 004°27'0 0.0
2015-Mar-29 10:31N 51°54' E 004°27'0 0.0
2015-Mar-29 09:31N 51°54' E 004°27'0 0.0
2015-Mar-29 08:31N 51°54' E 004°27'0 0.0
2015-Mar-29 07:31N 51°54' E 004°27'0 0.0
2015-Mar-29 06:31N 51°54' E 004°27'0 0.0
2015-Mar-29 05:31N 51°54' E 004°27'0 0.0
2015-Mar-29 04:31N 51°54' E 004°27'0 0.0
2015-Mar-29 03:31N 51°54' E 004°27'0 0.0
2015-Mar-29 02:31N 51°54' E 004°27'0 0.0
2015-Mar-29 01:31N 51°54' E 004°27'0 0.0
2015-Mar-29 00:31N 51°54' E 004°27'0 0.0
2015-Mar-28 23:31N 51°54' E 004°27'0 0.0
2015-Mar-28 22:31N 51°54' E 004°27'0 0.0
2015-Mar-28 21:31N 51°54' E 004°27'0 0.0
2015-Mar-28 20:31N 51°54' E 004°27'0 0.0
2015-Mar-28 19:31N 51°54' E 004°27'0 0.0
2015-Mar-28 18:31N 51°54' E 004°27'0 0.0
2015-Mar-28 17:31N 51°54' E 004°27'0 0.0
2015-Mar-28 16:31N 51°54' E 004°27'0 0.0
2015-Mar-28 15:31N 51°54' E 004°27'0 0.0
2015-Mar-28 14:34N 51°54' E 004°27'0 0.0
2015-Mar-28 13:33N 51°54' E 004°27'0 0.0
2015-Mar-28 12:30N 51°54' E 004°27'0 0.0
2015-Mar-28 11:33N 51°54' E 004°27'0 0.0
2015-Mar-28 10:34N 51°54' E 004°27'0 0.0
2015-Mar-28 09:33N 51°54' E 004°27'0 0.0
2015-Mar-28 08:27N 51°54' E 004°27'0 0.0
2015-Mar-28 07:33N 51°54' E 004°27'0 0.0
2015-Mar-28 06:33N 51°54' E 004°27'0 0.0
2015-Mar-28 05:31N 51°54' E 004°27'0 0.0
2015-Mar-28 04:31N 51°54' E 004°27'0 0.0
2015-Mar-28 03:31N 51°54' E 004°27'0 0.0
2015-Mar-28 02:28N 51°54' E 004°27'0 0.0
2015-Mar-28 01:31N 51°54' E 004°27'0 0.0
2015-Mar-28 00:31N 51°54' E 004°27'0 0.0
2015-Mar-27 23:31N 51°54' E 004°27'0 0.0
2015-Mar-27 22:31N 51°54' E 004°27'0 0.0
2015-Mar-27 21:31N 51°54' E 004°27'0 0.0
2015-Mar-27 20:28N 51°54' E 004°27'0 0.0
2015-Mar-27 19:31N 51°54' E 004°27'0 0.0
2015-Mar-27 18:31N 51°54' E 004°27'0 0.0
2015-Mar-27 17:28N 51°54' E 004°27'0 0.0
2015-Mar-27 16:31N 51°54' E 004°27'0 0.0
2015-Mar-27 15:28N 51°54' E 004°27'0 0.0
2015-Mar-27 14:28N 51°54' E 004°27'0 0.0
2015-Mar-27 13:31N 51°54' E 004°27'0 0.0
2015-Mar-27 12:31N 51°54' E 004°27'0 0.0
2015-Mar-27 11:31N 51°54' E 004°27'0 0.0
2015-Mar-27 10:31N 51°54' E 004°27'0 0.0
2015-Mar-27 09:34N 51°54' E 004°27'4 4.3
2015-Mar-27 08:33N 51°54' E 004°20'8 8.3
2015-Mar-27 07:33N 51°58' E 004°09'5 5.3
2015-Mar-27 06:34N 52°03' E 004°05'5 5.0
2015-Mar-27 05:34N 52°06' E 004°12'2 2.4
2015-Mar-27 04:32N 52°06' E 004°16'0 0.0
2015-Mar-27 03:29N 52°06' E 004°16'0 0.0
2015-Mar-27 02:32N 52°06' E 004°16'0 0.0
2015-Mar-27 01:32N 52°06' E 004°16'0 0.0
2015-Mar-27 00:32N 52°06' E 004°16'0 0.0
2015-Mar-26 23:32N 52°06' E 004°16'0 0.0
2015-Mar-26 22:32N 52°06' E 004°16'0 0.0
2015-Mar-26 21:32N 52°06' E 004°16'0 0.0
2015-Mar-26 20:29N 52°06' E 004°16'0 0.0
2015-Mar-26 19:32N 52°06' E 004°16'0 0.0
2015-Mar-26 18:32N 52°06' E 004°16'0 0.0
2015-Mar-26 17:32N 52°06' E 004°16'0 0.0
2015-Mar-26 16:32N 52°06' E 004°16'0 0.0
2015-Mar-26 15:29N 52°06' E 004°16'0 0.0
2015-Mar-26 14:31N 52°06' E 004°16'0 0.0
2015-Mar-26 13:28N 52°06' E 004°16'0 0.0
2015-Mar-26 12:31N 52°06' E 004°16'0 0.0
2015-Mar-26 11:31N 52°06' E 004°16'0 0.0
2015-Mar-26 10:31N 52°06' E 004°16'3 3.1
2015-Mar-26 09:33N 52°09' E 004°15'5 4.8
2015-Mar-26 08:33N 52°14' E 004°16'3 3.1
2015-Mar-26 07:33N 52°17' E 004°16'4 4.2
2015-Mar-26 06:33N 52°18' E 004°09'7 7.0
2015-Mar-26 05:33N 52°20' E 003°58'2 2.4
2015-Mar-26 04:33N 52°20' E 003°54'4 3.8
2015-Mar-26 03:33N 52°17' E 003°59'2 2.1
2015-Mar-26 02:33N 52°15' E 003°59'2 1.8
2015-Mar-26 01:33N 52°13' E 003°60'1 0.8
2015-Mar-26 00:33N 52°12' E 004°00'0 0.3
2015-Mar-25 23:33N 52°13' E 004°01'0 0.4
2015-Mar-25 22:33N 52°12' E 004°00'3 3.5
2015-Mar-25 21:33N 52°15' E 004°05'5 4.5
2015-Mar-25 20:33N 52°17' E 004°10'6 6.1
2015-Mar-25 19:33N 52°20' E 004°19'6 5.8
2015-Mar-25 18:33N 52°23' E 004°27'5 5.4
2015-Mar-25 17:33N 52°19' E 004°22'8 7.7
2015-Mar-25 16:34N 52°13' E 004°14'7 6.6
2015-Mar-25 15:33N 52°09' E 004°06'4 3.6
2015-Mar-25 14:33N 52°06' E 004°02'5 5.4
2015-Mar-25 13:33N 52°08' E 004°10'1 1.1
2015-Mar-25 12:33N 52°08' E 004°11'1 1.5
2015-Mar-25 11:33N 52°08' E 004°14'1 0.6
2015-Mar-25 10:33N 52°07' E 004°14'1 0.8
2015-Mar-25 09:33N 52°08' E 004°15'1 0.6
2015-Mar-25 08:33N 52°07' E 004°15'1 0.7
2015-Mar-25 07:33N 52°07' E 004°15'1 0.6
2015-Mar-25 06:33N 52°07' E 004°15'0 0.1
2015-Mar-25 05:33N 52°07' E 004°15'0 0.1
2015-Mar-25 04:33N 52°07' E 004°15'1 0.5
2015-Mar-25 03:33N 52°07' E 004°15'1 0.6
2015-Mar-25 02:33N 52°07' E 004°14'0 0.3
2015-Mar-25 01:33N 52°07' E 004°15'0 0.4
2015-Mar-25 00:33N 52°07' E 004°14'1 1.0
2015-Mar-24 23:33N 52°06' E 004°15'1 0.7
2015-Mar-24 22:33N 52°07' E 004°15'1 0.5
2015-Mar-24 21:33N 52°08' E 004°14'0 0.5
2015-Mar-24 20:33N 52°07' E 004°15'0 0.4
2015-Mar-24 19:33N 52°07' E 004°15'1 1.0
2015-Mar-24 18:33N 52°08' E 004°14'1 1.2
2015-Mar-24 17:33N 52°09' E 004°15'1 1.0
2015-Mar-24 16:33N 52°08' E 004°13'7 7.1
2015-Mar-24 15:33N 52°03' E 004°05'8 7.5
2015-Mar-24 14:33N 51°59' E 003°56'6 5.8
2015-Mar-24 13:33N 51°58' E 003°46'6 5.5
2015-Mar-24 12:33N 51°57' E 003°37'5 5.2
2015-Mar-24 11:33N 51°56' E 003°29'5 5.0
2015-Mar-24 10:33N 51°54' E 003°21'6 5.5
2015-Mar-24 09:31N 51°52' E 003°13'6 6.1
2015-Mar-24 08:32N 51°48' E 003°05'7 7.1
2015-Mar-24 07:33N 51°43' E 002°58'7 7.3
2015-Mar-24 06:33N 51°37' E 002°51'8 7.9
2015-Mar-24 05:31N 51°30' E 002°45'8 8.1
2015-Mar-24 04:33N 51°24' E 002°37'9 8.7
2015-Mar-24 03:32N 51°20' E 002°24'9 9.1
2015-Mar-24 02:33N 51°15' E 002°12'9 8.7
2015-Mar-24 01:33N 51°11' E 002°00'8 7.6
2015-Mar-24 00:33N 51°07' E 001°50'6 6.3
2015-Mar-23 23:33N 51°03' E 001°42'4 4.4
2015-Mar-23 22:33N 50°59' E 001°38'3 3.2
2015-Mar-23 21:33N 50°57' E 001°34'3 3.1
2015-Mar-23 20:33N 50°55' E 001°31'4 3.7
2015-Mar-23 19:34N 50°51' E 001°29'91 2.5
2015-Mar-22 07:15N 50°22' W 000°46'2 2.9
2015-Mar-22 06:33N 50°23' W 000°49'2 2.1
2015-Mar-22 05:27N 50°25' W 000°51'2 2.4
2015-Mar-22 04:33N 50°27' W 000°50'2 2.3
2015-Mar-22 03:33N 50°29' W 000°50'5 5.3
2015-Mar-22 02:33N 50°30' W 000°42'8 7.8
2015-Mar-22 01:30N 50°32' W 000°29'7 6.8
2015-Mar-22 00:32N 50°33' W 000°19'5 5.4
2015-Mar-21 23:32N 50°33' W 000°10'2 1.7
2015-Mar-21 22:07N 50°33' W 000°06'4 6.0
2015-Mar-21 21:30N 50°34' W 000°12'7 7.4
2015-Mar-21 20:33N 50°36' W 000°23'7 6.9
2015-Mar-21 19:33N 50°38' W 000°33'5 5.2
2015-Mar-21 18:33N 50°38' W 000°41'4 3.8
2015-Mar-21 17:33N 50°38' W 000°47'3 3.3
2015-Mar-21 16:33N 50°38' W 000°52'6 5.9
2015-Mar-21 15:33N 50°43' W 000°57'1 1.0
2015-Mar-21 14:33N 50°44' W 000°58'0 0.2
2015-Mar-21 13:33N 50°44' W 000°58'2 1.7
2015-Mar-21 12:33N 50°43' W 001°00'3 3.4
2015-Mar-21 11:33N 50°44' W 001°05'5 5.1
2015-Mar-21 10:33N 50°46' W 001°13'6 6.3
2015-Mar-21 09:33N 50°45' W 001°23'9 8.7
2015-Mar-21 08:33N 50°41' W 001°35'8 7.6
2015-Mar-21 07:33N 50°36' W 001°45'35 6.9
2015-Mar-21 02:33N 50°24' W 002°36'5 4.9
2015-Mar-21 01:33N 50°22' W 002°43'5 4.9
2015-Mar-21 00:33N 50°21' W 002°50'4 4.4
2015-Mar-20 23:33N 50°19' W 002°56'4 4.4
2015-Mar-20 22:33N 50°17' W 003°03'5 5.0
2015-Mar-20 21:33N 50°15' W 003°10'6 5.6
2015-Mar-20 20:33N 50°13' W 003°18'8 7.3
2015-Mar-20 19:30N 50°10' W 003°29'  

Dump ship's entire track history